createdAt,value
2019-03-11T00:00:10.955Z,93.35
2019-03-11T00:01:10.910Z,93.45
2019-03-11T00:02:10.896Z,94.07
2019-03-11T00:03:10.916Z,94.49
2019-03-11T00:04:11.754Z,94.28
2019-03-11T00:05:10.924Z,93.55
2019-03-11T00:06:10.883Z,94.07
2019-03-11T00:07:10.854Z,92.93
2019-03-11T00:08:10.829Z,93.03
2019-03-11T00:09:10.822Z,93.76
2019-03-11T00:10:10.830Z,93.35
2019-03-11T00:11:10.820Z,94.28
2019-03-11T00:12:10.793Z,95.21
2019-03-11T00:13:10.784Z,95.01
2019-03-11T00:14:10.778Z,95.53
2019-03-11T00:15:10.775Z,95.11
2019-03-11T00:16:10.783Z,94.18
2019-03-11T00:17:10.726Z,92.51
2019-03-11T00:18:10.716Z,93.14
2019-03-11T00:19:10.707Z,92.20
2019-03-11T00:20:10.713Z,92.72
2019-03-11T00:21:10.688Z,92.45
2019-03-11T00:22:10.705Z,92.93
2019-03-11T00:23:10.662Z,93.76
2019-03-11T00:24:10.656Z,94.07
2019-03-11T00:25:10.837Z,93.03
2019-03-11T00:26:10.639Z,92.20
2019-03-11T00:27:10.641Z,92.82
2019-03-11T00:28:10.626Z,93.24
2019-03-11T00:29:10.606Z,92.97
2019-03-11T00:30:10.635Z,93.14
2019-03-11T00:31:10.594Z,92.14
2019-03-11T00:32:10.577Z,91.37
2019-03-11T00:33:10.575Z,92.61
2019-03-11T00:34:10.538Z,92.93
2019-03-11T00:35:10.535Z,93.35
2019-03-11T00:36:10.539Z,92.93
2019-03-11T00:37:10.505Z,91.72
2019-03-11T00:38:10.503Z,92.20
2019-03-11T00:39:10.520Z,92.82
2019-03-11T00:40:10.513Z,92.86
2019-03-11T00:41:10.472Z,92.51
2019-03-11T00:42:10.462Z,93.24
2019-03-11T00:43:10.444Z,93.07
2019-03-11T00:44:10.421Z,93.45
2019-03-11T00:45:10.437Z,92.14
2019-03-11T00:46:10.412Z,91.78
2019-03-11T00:47:10.401Z,92.93
2019-03-11T00:48:10.382Z,92.30
2019-03-11T00:49:10.381Z,92.03
2019-03-11T00:50:10.370Z,93.03
2019-03-11T00:51:10.379Z,92.41
2019-03-11T00:52:10.334Z,90.95
2019-03-11T00:53:10.322Z,90.95
2019-03-11T00:54:10.310Z,91.06
2019-03-11T00:55:10.325Z,91.47
2019-03-11T00:56:10.323Z,92.66
2019-03-11T00:57:10.274Z,91.06
2019-03-11T00:58:10.262Z,90.44
2019-03-11T00:59:10.252Z,91.47
2019-03-11T01:00:10.462Z,92.20
2019-03-11T01:01:10.248Z,91.27
2019-03-11T01:02:10.250Z,92.20
2019-03-11T01:03:10.212Z,91.58
2019-03-11T01:04:10.202Z,92.41
2019-03-11T01:05:10.216Z,90.95
2019-03-11T01:06:10.193Z,91.37
2019-03-11T01:07:10.189Z,91.16
2019-03-11T01:08:10.153Z,91.68
2019-03-11T01:09:10.160Z,91.58
2019-03-11T01:10:10.137Z,92.51
2019-03-11T01:11:10.120Z,92.72
2019-03-11T01:12:10.112Z,91.58
2019-03-11T01:13:10.134Z,92.20
2019-03-11T01:14:10.081Z,92.61
2019-03-11T01:15:10.081Z,90.54
2019-03-11T01:16:10.061Z,91.16
2019-03-11T01:17:10.052Z,90.23
2019-03-11T01:18:10.054Z,89.08
2019-03-11T01:19:10.035Z,90.54
2019-03-11T01:20:10.057Z,92.30
2019-03-11T01:21:10.002Z,92.10
2019-03-11T01:22:10.035Z,91.47
2019-03-11T01:23:09.990Z,92.20
2019-03-11T01:24:09.988Z,91.16
2019-03-11T01:25:09.970Z,90.23
2019-03-11T01:26:09.949Z,90.12
2019-03-11T01:27:09.964Z,90.75
2019-03-11T01:28:09.952Z,91.06
2019-03-11T01:29:09.929Z,90.23
2019-03-11T01:30:09.933Z,89.29
2019-03-11T01:31:09.889Z,90.02
2019-03-11T01:32:09.879Z,91.27
2019-03-11T01:33:09.899Z,91.16
2019-03-11T01:34:09.865Z,90.12
2019-03-11T01:35:09.864Z,90.75
2019-03-11T01:36:09.833Z,90.23
2019-03-11T01:37:09.823Z,89.92
2019-03-11T01:38:09.821Z,90.54
2019-03-11T01:39:09.803Z,91.37
2019-03-11T01:40:09.813Z,90.85
2019-03-11T01:41:09.802Z,90.75
2019-03-11T01:42:09.768Z,91.16
2019-03-11T01:43:09.767Z,90.54
2019-03-11T01:44:09.754Z,90.44
2019-03-11T01:45:09.750Z,90.54
2019-03-11T01:46:09.733Z,90.50
2019-03-11T01:47:09.742Z,89.29
2019-03-11T01:48:09.699Z,88.87
2019-03-11T01:49:09.685Z,90.02
2019-03-11T01:50:09.696Z,90.23
2019-03-11T01:51:09.668Z,89.08
2019-03-11T01:52:09.672Z,88.67
2019-03-11T01:53:09.641Z,88.77
2019-03-11T01:54:09.629Z,88.46
2019-03-11T01:55:09.634Z,90.12
2019-03-11T01:56:09.610Z,90.33
2019-03-11T01:57:09.606Z,88.77
2019-03-11T01:58:09.615Z,89.60
2019-03-11T01:59:09.574Z,90.54
2019-03-11T02:00:09.573Z,90.02
2019-03-11T02:01:09.552Z,90.95
2019-03-11T02:02:09.577Z,90.54
2019-03-11T02:03:09.546Z,90.12
2019-03-11T02:04:09.552Z,90.12
2019-03-11T02:05:09.550Z,90.23
2019-03-11T02:06:09.502Z,89.50
2019-03-11T02:07:09.488Z,89.29
2019-03-11T02:08:09.479Z,89.92
2019-03-11T02:09:09.476Z,89.50
2019-03-11T02:10:09.465Z,90.12
2019-03-11T02:11:09.436Z,90.33
2019-03-11T02:12:09.430Z,89.92
2019-03-11T02:13:09.436Z,89.39
2019-03-11T02:14:09.422Z,88.98
2019-03-11T02:15:09.516Z,90.44
2019-03-11T02:16:09.425Z,88.67
2019-03-11T02:17:09.382Z,87.84
2019-03-11T02:18:09.360Z,88.35
2019-03-11T02:19:09.350Z,88.87
2019-03-11T02:20:09.360Z,88.77
2019-03-11T02:21:09.355Z,88.84
2019-03-11T02:22:09.322Z,87.52
2019-03-11T02:23:09.305Z,88.15
2019-03-11T02:24:09.297Z,88.25
2019-03-11T02:25:09.283Z,88.35
2019-03-11T02:26:09.289Z,89.08
2019-03-11T02:27:09.298Z,90.44
2019-03-11T02:28:09.255Z,90.12
2019-03-11T02:29:09.233Z,90.95
2019-03-11T02:30:09.235Z,90.64
2019-03-11T02:31:09.234Z,88.56
2019-03-11T02:32:09.201Z,89.81
2019-03-11T02:33:09.194Z,90.44
2019-03-11T02:34:09.191Z,90.12
2019-03-11T02:35:09.168Z,90.12
2019-03-11T02:36:09.177Z,89.50
2019-03-11T02:37:09.152Z,89.39
2019-03-11T02:38:09.134Z,90.23
2019-03-11T02:39:09.121Z,89.50
2019-03-11T02:40:09.120Z,90.44
2019-03-11T02:41:09.133Z,90.33
2019-03-11T02:42:09.111Z,89.70
2019-03-11T02:43:09.097Z,90.44
2019-03-11T02:44:09.095Z,90.44
2019-03-11T02:45:09.064Z,90.23
2019-03-11T02:46:09.057Z,89.92
2019-03-11T02:47:09.058Z,90.26
2019-03-11T02:48:09.027Z,89.08
2019-03-11T02:49:09.013Z,89.08
2019-03-11T02:50:09.049Z,90.26
2019-03-11T02:51:09.007Z,89.95
2019-03-11T02:52:09.039Z,90.37
2019-03-11T02:53:08.984Z,91.00
2019-03-11T02:54:08.969Z,91.62
2019-03-11T02:55:09.038Z,91.20
2019-03-11T02:56:08.998Z,90.47
2019-03-11T02:57:08.917Z,90.58
2019-03-11T02:58:08.920Z,89.85
2019-03-11T02:59:08.908Z,90.16
2019-03-11T03:00:08.914Z,91.10
2019-03-11T03:01:08.911Z,90.93
2019-03-11T03:02:08.884Z,91.00
2019-03-11T03:03:08.877Z,90.79
2019-03-11T03:04:08.870Z,90.37
2019-03-11T03:05:08.844Z,90.41
2019-03-11T03:06:08.844Z,90.93
2019-03-11T03:07:08.808Z,90.47
2019-03-11T03:08:08.808Z,90.31
2019-03-11T03:09:08.870Z,90.16
2019-03-11T03:10:08.802Z,90.83
2019-03-11T03:11:08.782Z,90.26
2019-03-11T03:12:08.757Z,90.62
2019-03-11T03:13:08.784Z,91.77
2019-03-11T03:14:08.732Z,91.66
2019-03-11T03:15:08.733Z,91.04
2019-03-11T03:16:08.708Z,91.25
2019-03-11T03:17:08.710Z,91.46
2019-03-11T03:18:08.690Z,92.08
2019-03-11T03:19:08.706Z,91.66
2019-03-11T03:20:08.679Z,91.66
2019-03-11T03:21:08.705Z,92.29
2019-03-11T03:22:08.655Z,92.70
2019-03-11T03:23:08.624Z,93.01
2019-03-11T03:24:08.678Z,91.14
2019-03-11T03:25:08.620Z,92.60
2019-03-11T03:26:08.603Z,93.23
2019-03-11T03:27:08.583Z,93.01
2019-03-11T03:28:08.672Z,93.33
2019-03-11T03:29:08.565Z,93.12
2019-03-11T03:30:08.576Z,92.49
2019-03-11T03:31:08.544Z,92.29
2019-03-11T03:32:08.546Z,92.29
2019-03-11T03:33:08.524Z,92.29
2019-03-11T03:34:08.539Z,92.91
2019-03-11T03:35:08.532Z,92.29
2019-03-11T03:36:08.484Z,92.70
2019-03-11T03:37:08.474Z,93.33
2019-03-11T03:38:08.464Z,92.49
2019-03-11T03:39:08.457Z,93.43
2019-03-11T03:40:08.464Z,92.91
2019-03-11T03:41:08.419Z,92.80
2019-03-11T03:42:08.521Z,93.43
2019-03-11T03:43:08.584Z,92.91
2019-03-11T03:44:08.420Z,93.43
2019-03-11T03:45:08.403Z,93.23
2019-03-11T03:46:18.738Z,93.29
2019-03-11T03:47:09.378Z,93.39
2019-03-11T03:48:08.349Z,93.64
2019-03-11T03:49:08.343Z,93.39
2019-03-11T03:50:08.402Z,93.43
2019-03-11T03:51:08.398Z,92.39
2019-03-11T03:52:08.307Z,93.01
2019-03-11T03:53:08.290Z,93.01
2019-03-11T03:54:08.351Z,93.43
2019-03-11T03:55:08.292Z,92.86
2019-03-11T03:56:08.291Z,92.60
2019-03-11T03:57:08.242Z,93.07
2019-03-11T03:58:08.235Z,92.45
2019-03-11T03:59:08.227Z,92.35
2019-03-11T04:00:08.231Z,92.49
2019-03-11T04:01:08.203Z,92.45
2019-03-11T04:02:08.203Z,92.39
2019-03-11T04:03:08.186Z,92.76
2019-03-11T04:04:08.163Z,93.07
2019-03-11T04:05:08.167Z,93.18
2019-03-11T04:06:08.140Z,93.33
2019-03-11T04:07:08.135Z,93.01
2019-03-11T04:08:08.153Z,92.86
2019-03-11T04:09:08.116Z,93.39
2019-03-11T04:10:08.154Z,93.39
2019-03-11T04:11:08.091Z,93.39
2019-03-11T04:12:08.079Z,93.18
2019-03-11T04:13:08.078Z,92.97
2019-03-11T04:14:08.052Z,93.70
2019-03-11T04:15:08.048Z,92.86
2019-03-11T04:16:08.037Z,92.45
2019-03-11T04:17:08.014Z,92.45
2019-03-11T04:18:08.017Z,93.29
2019-03-11T04:19:08.000Z,93.29
2019-03-11T04:20:07.981Z,93.49
2019-03-11T04:21:07.984Z,93.43
2019-03-11T04:22:07.983Z,92.97
2019-03-11T04:23:07.997Z,92.55
2019-03-11T04:24:07.951Z,92.35
2019-03-11T04:25:07.931Z,92.76
2019-03-11T04:26:07.965Z,92.97
2019-03-11T04:27:07.904Z,92.86
2019-03-11T04:28:07.902Z,92.39
2019-03-11T04:29:07.891Z,92.91
2019-03-11T04:30:07.885Z,92.70
2019-03-11T04:31:07.882Z,92.49
2019-03-11T04:32:07.856Z,92.35
2019-03-11T04:33:07.846Z,92.97
2019-03-11T04:34:07.828Z,93.49
2019-03-11T04:35:07.830Z,93.49
2019-03-11T04:36:07.834Z,93.39
2019-03-11T04:37:07.791Z,93.70
2019-03-11T04:38:07.779Z,93.70
2019-03-11T04:39:07.769Z,93.39
2019-03-11T04:40:07.778Z,93.49
2019-03-11T04:41:07.772Z,93.60
2019-03-11T04:42:07.759Z,92.97
2019-03-11T04:43:07.735Z,92.86
2019-03-11T04:44:07.710Z,93.49
2019-03-11T04:45:07.708Z,93.18
2019-03-11T04:46:07.737Z,92.66
2019-03-11T04:47:07.710Z,92.35
2019-03-11T04:48:07.668Z,93.18
2019-03-11T04:49:07.660Z,92.35
2019-03-11T04:50:07.643Z,91.93
2019-03-11T04:51:07.658Z,92.55
2019-03-11T04:52:07.638Z,92.97
2019-03-11T04:53:07.638Z,92.35
2019-03-11T04:54:07.596Z,92.86
2019-03-11T04:55:07.592Z,92.86
2019-03-11T04:56:07.945Z,92.97
2019-03-11T04:57:07.574Z,92.35
2019-03-11T04:58:07.567Z,93.18
2019-03-11T04:59:07.546Z,91.31
2019-03-11T05:00:07.553Z,91.93
2019-03-11T05:01:07.546Z,92.41
2019-03-11T05:02:07.506Z,92.55
2019-03-11T05:03:07.506Z,92.20
2019-03-11T05:04:07.517Z,92.20
2019-03-11T05:05:07.476Z,92.51
2019-03-11T05:06:07.484Z,92.45
2019-03-11T05:07:07.458Z,91.72
2019-03-11T05:08:07.456Z,92.24
2019-03-11T05:09:07.440Z,92.45
2019-03-11T05:10:07.416Z,92.20
2019-03-11T05:11:07.418Z,92.55
2019-03-11T05:12:07.394Z,92.30
2019-03-11T05:13:07.407Z,92.97
2019-03-11T05:14:07.378Z,92.72
2019-03-11T05:15:07.382Z,92.41
2019-03-11T05:16:07.384Z,92.72
2019-03-11T05:17:07.357Z,92.51
2019-03-11T05:18:07.375Z,91.68
2019-03-11T05:19:07.330Z,92.30
2019-03-11T05:20:07.315Z,91.37
2019-03-11T05:21:07.323Z,90.44
2019-03-11T05:22:07.284Z,91.47
2019-03-11T05:23:07.271Z,91.27
2019-03-11T05:24:07.283Z,91.68
2019-03-11T05:25:07.252Z,92.20
2019-03-11T05:26:07.269Z,92.30
2019-03-11T05:27:07.227Z,92.93
2019-03-11T05:28:07.216Z,92.41
2019-03-11T05:29:07.204Z,91.22
2019-03-11T05:30:07.232Z,90.91
2019-03-11T05:31:07.237Z,91.02
2019-03-11T05:32:07.207Z,90.85
2019-03-11T05:33:07.155Z,90.39
2019-03-11T05:34:07.146Z,90.50
2019-03-11T05:35:07.143Z,91.43
2019-03-11T05:36:07.206Z,90.81
2019-03-11T05:37:07.149Z,90.95
2019-03-11T05:38:07.300Z,90.70
2019-03-11T05:39:07.088Z,91.64
2019-03-11T05:40:07.085Z,91.22
2019-03-11T05:41:08.849Z,90.81
2019-03-11T05:42:07.082Z,90.81
2019-03-11T05:43:07.059Z,90.50
2019-03-11T05:44:07.033Z,90.81
2019-03-11T05:45:07.023Z,91.02
2019-03-11T05:46:07.437Z,89.46
2019-03-11T05:47:07.012Z,90.29
2019-03-11T05:48:06.998Z,89.98
2019-03-11T05:49:06.994Z,89.46
2019-03-11T05:50:06.965Z,88.84
2019-03-11T05:51:06.962Z,90.45
2019-03-11T05:52:06.944Z,88.73
2019-03-11T05:53:06.950Z,88.73
2019-03-11T05:54:06.936Z,89.00
2019-03-11T05:55:06.942Z,88.38
2019-03-11T05:56:07.065Z,88.21
2019-03-11T05:57:06.909Z,87.96
2019-03-11T05:58:06.887Z,88.69
2019-03-11T05:59:06.876Z,88.52
2019-03-11T06:00:06.868Z,88.21
2019-03-11T06:01:06.840Z,87.27
2019-03-11T06:02:06.837Z,88.28
2019-03-11T06:03:06.829Z,88.84
2019-03-11T06:04:06.824Z,88.84
2019-03-11T06:05:06.803Z,87.38
2019-03-11T06:06:06.795Z,87.86
2019-03-11T06:07:06.784Z,87.34
2019-03-11T06:08:06.759Z,86.82
2019-03-11T06:09:06.752Z,85.47
2019-03-11T06:10:06.743Z,86.82
2019-03-11T06:11:06.740Z,87.13
2019-03-11T06:12:06.749Z,87.03
2019-03-11T06:13:06.704Z,86.93
2019-03-11T06:14:06.707Z,87.24
2019-03-11T06:15:06.680Z,87.45
2019-03-11T06:16:06.672Z,86.72
2019-03-11T06:17:06.677Z,86.51
2019-03-11T06:18:06.651Z,86.41
2019-03-11T06:19:06.633Z,86.93
2019-03-11T06:20:06.640Z,86.82
2019-03-11T06:21:06.621Z,86.72
2019-03-11T06:22:06.642Z,86.51
2019-03-11T06:23:06.593Z,85.47
2019-03-11T06:24:06.580Z,85.16
2019-03-11T06:25:06.577Z,85.36
2019-03-11T06:26:06.558Z,85.36
2019-03-11T06:27:06.546Z,85.99
2019-03-11T06:28:06.580Z,84.84
2019-03-11T06:29:06.524Z,85.05
2019-03-11T06:30:08.164Z,85.47
2019-03-11T06:31:06.582Z,85.05
2019-03-11T06:32:06.486Z,85.16
2019-03-11T06:33:06.484Z,85.78
2019-03-11T06:34:06.477Z,85.57
2019-03-11T06:35:06.459Z,85.57
2019-03-11T06:36:06.440Z,85.99
2019-03-11T06:37:06.432Z,86.47
2019-03-11T06:38:06.445Z,86.19
2019-03-11T06:39:06.411Z,85.43
2019-03-11T06:40:06.416Z,86.05
2019-03-11T06:41:06.387Z,85.64
2019-03-11T06:42:06.373Z,85.22
2019-03-11T06:43:06.384Z,85.02
2019-03-11T06:44:06.362Z,85.22
2019-03-11T06:45:06.374Z,85.33
2019-03-11T06:46:06.331Z,85.74
2019-03-11T06:47:06.321Z,85.33
2019-03-11T06:48:06.365Z,86.02
2019-03-11T06:49:06.298Z,84.88
2019-03-11T06:50:06.299Z,84.36
2019-03-11T06:51:06.271Z,83.94
2019-03-11T06:52:06.263Z,85.19
2019-03-11T06:53:06.280Z,84.25
2019-03-11T06:54:06.244Z,83.84
2019-03-11T06:55:06.244Z,83.63
2019-03-11T06:56:06.240Z,84.15
2019-03-11T06:57:06.208Z,84.19
2019-03-11T06:58:06.213Z,83.46
2019-03-11T06:59:06.185Z,84.05
2019-03-11T07:00:06.174Z,84.25
2019-03-11T07:01:06.174Z,83.94
2019-03-11T07:02:06.330Z,83.42
2019-03-11T07:03:06.248Z,83.46
2019-03-11T07:04:06.191Z,84.29
2019-03-11T07:05:06.136Z,83.56
2019-03-11T07:06:06.108Z,83.56
2019-03-11T07:07:06.102Z,83.53
2019-03-11T07:08:06.079Z,83.63
2019-03-11T07:09:06.134Z,83.84
2019-03-11T07:10:06.079Z,84.29
2019-03-11T07:11:06.043Z,83.04
2019-03-11T07:12:06.053Z,83.22
2019-03-11T07:13:06.048Z,83.15
2019-03-11T07:14:06.055Z,83.25
2019-03-11T07:15:06.062Z,83.04
2019-03-11T07:16:05.988Z,82.73
2019-03-11T07:17:05.978Z,82.53
2019-03-11T07:18:05.982Z,82.39
2019-03-11T07:19:05.992Z,83.36
2019-03-11T07:20:05.945Z,83.04
2019-03-11T07:21:05.951Z,82.39
2019-03-11T07:22:05.941Z,82.11
2019-03-11T07:23:05.921Z,83.63
2019-03-11T07:24:05.925Z,81.80
2019-03-11T07:25:05.888Z,82.80
2019-03-11T07:26:05.875Z,81.80
2019-03-11T07:27:05.866Z,81.49
2019-03-11T07:28:05.859Z,81.80
2019-03-11T07:29:05.863Z,82.39
2019-03-11T07:30:05.839Z,82.18
2019-03-11T07:31:05.818Z,82.49
2019-03-11T07:32:05.806Z,82.80
2019-03-11T07:33:07.070Z,82.07
2019-03-11T07:34:05.804Z,82.90
2019-03-11T07:35:08.748Z,83.63
2019-03-11T07:36:05.759Z,81.76
2019-03-11T07:37:05.829Z,81.45
2019-03-11T07:38:05.746Z,82.07
2019-03-11T07:39:05.752Z,82.55
2019-03-11T07:40:05.723Z,81.62
2019-03-11T07:41:05.796Z,81.72
2019-03-11T07:42:05.691Z,80.99
2019-03-11T07:43:05.681Z,81.72
2019-03-11T07:44:05.728Z,81.10
2019-03-11T07:45:05.835Z,81.41
2019-03-11T07:46:05.663Z,82.03
2019-03-11T07:47:05.645Z,80.96
2019-03-11T07:48:05.632Z,81.30
2019-03-11T07:49:05.632Z,80.58
2019-03-11T07:50:05.621Z,82.03
2019-03-11T07:51:05.602Z,81.30
2019-03-11T07:52:05.600Z,81.79
2019-03-11T07:53:05.569Z,80.44
2019-03-11T07:54:05.574Z,81.27
2019-03-11T07:55:05.546Z,81.06
2019-03-11T07:56:05.536Z,80.02
2019-03-11T07:57:05.546Z,79.92
2019-03-11T07:58:05.517Z,80.54
2019-03-11T07:59:05.568Z,81.96
2019-03-11T08:00:05.501Z,79.88
2019-03-11T08:01:05.482Z,81.06
2019-03-11T08:02:05.471Z,80.82
2019-03-11T08:03:05.478Z,81.65
2019-03-11T08:04:05.444Z,81.02
2019-03-11T08:05:05.448Z,80.51
2019-03-11T08:06:05.421Z,81.44
2019-03-11T08:07:05.415Z,81.85
2019-03-11T08:08:05.580Z,80.19
2019-03-11T08:09:05.414Z,80.19
2019-03-11T08:10:05.397Z,80.19
2019-03-11T08:11:05.365Z,79.99
2019-03-11T08:12:05.357Z,80.54
2019-03-11T08:13:07.899Z,79.88
2019-03-11T08:14:05.339Z,79.68
2019-03-11T08:15:05.359Z,79.27
2019-03-11T08:16:05.307Z,78.64
2019-03-11T08:17:05.298Z,78.37
2019-03-11T08:18:05.514Z,79.16
2019-03-11T08:19:05.291Z,78.75
2019-03-11T08:20:05.344Z,78.54
2019-03-11T08:21:05.248Z,79.16
2019-03-11T08:22:05.238Z,78.12
2019-03-11T08:23:05.234Z,78.96
2019-03-11T08:24:05.454Z,79.92
2019-03-11T08:25:05.210Z,77.64
2019-03-11T08:26:05.202Z,77.92
2019-03-11T08:27:05.205Z,77.61
2019-03-11T08:28:05.168Z,79.06
2019-03-11T08:29:05.162Z,78.75
2019-03-11T08:30:05.155Z,79.06
2019-03-11T08:31:05.185Z,78.23
2019-03-11T08:32:05.138Z,78.23
2019-03-11T08:33:05.112Z,77.19
2019-03-11T08:34:05.102Z,77.71
2019-03-11T08:35:06.132Z,77.61
2019-03-11T08:36:05.108Z,77.71
2019-03-11T08:37:05.070Z,78.12
2019-03-11T08:38:05.525Z,77.92
2019-03-11T08:39:05.049Z,77.71
2019-03-11T08:40:05.053Z,78.33
2019-03-11T08:41:05.029Z,77.61
2019-03-11T08:42:05.014Z,77.50
2019-03-11T08:43:05.010Z,77.81
2019-03-11T08:44:04.989Z,77.61
2019-03-11T08:45:04.991Z,78.02
2019-03-11T08:46:04.976Z,79.16
2019-03-11T08:47:04.971Z,78.12
2019-03-11T08:48:04.970Z,77.29
2019-03-11T08:49:04.931Z,77.40
2019-03-11T08:50:04.928Z,77.19
2019-03-11T08:51:04.914Z,77.61
2019-03-11T08:52:05.471Z,76.46
2019-03-11T08:53:04.927Z,76.88
2019-03-11T08:54:04.885Z,77.61
2019-03-11T08:55:04.873Z,77.61
2019-03-11T08:56:04.855Z,77.29
2019-03-11T08:57:04.851Z,76.26
2019-03-11T08:58:04.829Z,77.29
2019-03-11T08:59:04.837Z,77.61
2019-03-11T09:00:04.887Z,77.19
2019-03-11T09:01:04.807Z,77.26
2019-03-11T09:02:04.787Z,77.61
2019-03-11T09:03:04.793Z,77.19
2019-03-11T09:04:04.765Z,76.74
2019-03-11T09:05:04.778Z,76.32
2019-03-11T09:06:04.740Z,76.43
2019-03-11T09:07:04.737Z,76.32
2019-03-11T09:08:04.720Z,76.84
2019-03-11T09:09:05.543Z,77.47
2019-03-11T09:10:04.716Z,75.29
2019-03-11T09:11:04.759Z,75.60
2019-03-11T09:12:04.675Z,75.40
2019-03-11T09:13:04.660Z,75.50
2019-03-11T09:14:04.653Z,75.09
2019-03-11T09:15:04.679Z,75.29
2019-03-11T09:16:04.646Z,75.60
2019-03-11T09:17:04.656Z,75.09
2019-03-11T09:18:04.606Z,75.60
2019-03-11T09:19:04.599Z,75.19
2019-03-11T09:20:04.584Z,75.05
2019-03-11T09:21:05.036Z,75.60
2019-03-11T09:22:04.566Z,75.09
2019-03-11T09:23:04.552Z,75.15
2019-03-11T09:24:04.536Z,74.57
2019-03-11T09:25:04.527Z,75.19
2019-03-11T09:26:04.543Z,73.50
2019-03-11T09:27:04.521Z,73.84
2019-03-11T09:28:04.504Z,73.74
2019-03-11T09:29:04.486Z,75.26
2019-03-11T09:30:04.480Z,74.12
2019-03-11T09:31:04.479Z,74.43
2019-03-11T09:32:04.452Z,74.60
2019-03-11T09:33:04.464Z,74.43
2019-03-11T09:34:04.429Z,74.60
2019-03-11T09:35:04.526Z,74.91
2019-03-11T09:36:04.406Z,73.77
2019-03-11T09:37:04.399Z,73.15
2019-03-11T09:38:04.455Z,71.91
2019-03-11T09:39:04.378Z,72.74
2019-03-11T09:40:04.357Z,71.47
2019-03-11T09:41:04.357Z,72.91
2019-03-11T09:42:04.368Z,71.95
2019-03-11T09:43:04.323Z,70.81
2019-03-11T09:44:04.330Z,71.12
2019-03-11T09:45:04.462Z,71.02
2019-03-11T09:46:04.376Z,70.61
2019-03-11T09:47:04.285Z,71.43
2019-03-11T09:48:04.262Z,70.50
2019-03-11T09:49:04.268Z,71.40
2019-03-11T09:50:04.288Z,70.26
2019-03-11T09:51:04.253Z,70.78
2019-03-11T09:52:04.217Z,68.82
2019-03-11T09:53:04.307Z,68.92
2019-03-11T09:54:04.309Z,69.20
2019-03-11T09:55:04.213Z,70.57
2019-03-11T09:56:04.221Z,70.33
2019-03-11T09:57:04.160Z,69.30
2019-03-11T09:58:04.678Z,69.61
2019-03-11T09:59:04.160Z,69.71
2019-03-11T10:00:04.149Z,69.09
2019-03-11T10:01:04.185Z,70.23
2019-03-11T10:02:04.160Z,69.20
2019-03-11T10:03:04.167Z,67.96
2019-03-11T10:04:04.081Z,68.99
2019-03-11T10:05:04.070Z,69.09
2019-03-11T10:06:04.405Z,69.30
2019-03-11T10:07:04.056Z,68.78
2019-03-11T10:08:04.088Z,69.20
2019-03-11T10:09:04.088Z,69.12
2019-03-11T10:10:04.015Z,70.06
2019-03-11T10:11:04.010Z,70.29
2019-03-11T10:12:03.989Z,70.29
2019-03-11T10:13:03.992Z,70.71
2019-03-11T10:14:03.973Z,71.22
2019-03-11T10:15:03.953Z,70.92
2019-03-11T10:16:04.077Z,71.84
2019-03-11T10:17:03.945Z,73.08
2019-03-11T10:18:03.921Z,72.47
2019-03-11T10:19:03.915Z,72.47
2019-03-11T10:20:03.904Z,72.47
2019-03-11T10:21:03.920Z,72.57
2019-03-11T10:22:03.912Z,73.19
2019-03-11T10:23:03.887Z,74.12
2019-03-11T10:24:03.865Z,73.60
2019-03-11T10:25:03.845Z,74.22
2019-03-11T10:26:04.018Z,74.63
2019-03-11T10:27:03.843Z,74.60
2019-03-11T10:28:03.822Z,73.98
2019-03-11T10:29:03.800Z,73.05
2019-03-11T10:30:03.810Z,73.16
2019-03-11T10:31:03.773Z,73.67
2019-03-11T10:32:03.849Z,73.05
2019-03-11T10:33:03.755Z,71.64
2019-03-11T10:34:03.732Z,72.95
2019-03-11T10:35:03.731Z,72.95
2019-03-11T10:36:03.713Z,73.05
2019-03-11T10:37:03.716Z,71.61
2019-03-11T10:38:03.686Z,72.40
2019-03-11T10:39:03.721Z,71.78
2019-03-11T10:40:03.692Z,71.16
2019-03-11T10:41:03.766Z,70.20
2019-03-11T10:42:03.781Z,71.06
2019-03-11T10:43:03.705Z,70.75
2019-03-11T10:44:03.952Z,70.95
2019-03-11T10:45:03.658Z,71.85
2019-03-11T10:46:03.636Z,70.92
2019-03-11T10:47:03.637Z,70.43
2019-03-11T10:48:03.583Z,69.30
2019-03-11T10:49:03.576Z,70.33
2019-03-11T10:50:03.557Z,70.85
2019-03-11T10:51:03.592Z,70.33
2019-03-11T10:52:03.552Z,70.72
2019-03-11T10:53:03.596Z,71.75
2019-03-11T10:54:03.528Z,71.54
2019-03-11T10:55:03.493Z,71.75
2019-03-11T10:56:03.855Z,71.57
2019-03-11T10:57:03.474Z,71.26
2019-03-11T10:58:03.466Z,72.40
2019-03-11T10:59:03.450Z,73.33
2019-03-11T11:00:03.445Z,72.43
2019-03-11T11:01:03.430Z,74.15
2019-03-11T11:02:03.435Z,73.43
2019-03-11T11:03:03.410Z,75.22
2019-03-11T11:04:03.396Z,75.60
2019-03-11T11:05:03.385Z,75.53
2019-03-11T11:06:03.386Z,75.22
2019-03-11T11:07:03.372Z,76.56
2019-03-11T11:08:03.373Z,76.36
2019-03-11T11:09:03.351Z,76.50
2019-03-11T11:10:03.332Z,76.09
2019-03-11T11:11:03.337Z,77.01
2019-03-11T11:12:03.303Z,77.36
2019-03-11T11:13:03.310Z,77.67
2019-03-11T11:14:03.286Z,77.05
2019-03-11T11:15:03.317Z,77.36
2019-03-11T11:16:03.262Z,77.87
2019-03-11T11:17:03.252Z,77.67
2019-03-11T11:18:03.348Z,78.53
2019-03-11T11:19:03.222Z,77.50
2019-03-11T11:20:04.121Z,76.57
2019-03-11T11:21:03.212Z,77.91
2019-03-11T11:22:03.202Z,78.33
2019-03-11T11:23:10.740Z,78.22
2019-03-11T11:24:03.170Z,79.57
2019-03-11T11:25:03.154Z,78.95
2019-03-11T11:26:03.164Z,79.40
2019-03-11T11:27:03.144Z,79.88
2019-03-11T11:28:03.137Z,80.08
2019-03-11T11:29:03.112Z,79.91
2019-03-11T11:30:03.094Z,79.40
2019-03-11T11:31:03.104Z,79.81
2019-03-11T11:32:03.078Z,80.88
2019-03-11T11:33:03.068Z,83.06
2019-03-11T11:34:03.052Z,83.58
2019-03-11T11:35:03.056Z,82.95
2019-03-11T11:36:03.056Z,82.95
2019-03-11T11:37:03.041Z,84.82
2019-03-11T11:38:03.011Z,85.38
2019-03-11T11:39:03.003Z,85.58
2019-03-11T11:40:02.989Z,86.52
2019-03-11T11:41:03.018Z,86.52
2019-03-11T11:42:02.967Z,87.45
2019-03-11T11:43:02.953Z,86.87
2019-03-11T11:44:02.947Z,87.80
2019-03-11T11:45:02.932Z,87.43
2019-03-11T11:46:02.947Z,87.37
2019-03-11T11:47:02.903Z,88.30
2019-03-11T11:48:02.931Z,88.40
2019-03-11T11:49:02.882Z,89.13
2019-03-11T11:50:02.872Z,90.17
2019-03-11T11:51:02.877Z,90.06
2019-03-11T11:52:02.871Z,90.00
2019-03-11T11:53:02.841Z,89.96
2019-03-11T11:54:02.825Z,89.96
2019-03-11T11:55:10.366Z,88.82
2019-03-11T11:56:02.816Z,89.65
2019-03-11T11:57:02.796Z,91.31
2019-03-11T11:58:02.804Z,90.27
2019-03-11T11:59:02.781Z,90.17
2019-03-11T12:00:02.757Z,89.23
2019-03-11T12:01:02.757Z,90.17
2019-03-11T12:02:04.037Z,90.79
2019-03-11T12:03:02.739Z,91.20
2019-03-11T12:04:02.737Z,90.85
2019-03-11T12:05:02.714Z,90.58
2019-03-11T12:06:02.719Z,90.89
2019-03-11T12:07:02.683Z,90.64
2019-03-11T12:08:02.675Z,90.85
2019-03-11T12:09:02.666Z,90.85
2019-03-11T12:10:02.660Z,91.22
2019-03-11T12:11:02.694Z,90.33
2019-03-11T12:12:02.622Z,89.25
2019-03-11T12:13:02.633Z,88.32
2019-03-11T12:14:02.619Z,88.94
2019-03-11T12:15:02.589Z,89.98
2019-03-11T12:16:02.587Z,87.70
2019-03-11T12:17:02.634Z,87.70
2019-03-11T12:18:02.605Z,88.32
2019-03-11T12:19:02.666Z,87.90
2019-03-11T12:20:02.557Z,88.42
2019-03-11T12:21:02.555Z,88.53
2019-03-11T12:22:02.534Z,89.56
2019-03-11T12:23:02.529Z,88.48
2019-03-11T12:24:02.487Z,87.87
2019-03-11T12:25:02.492Z,87.87
2019-03-11T12:26:02.474Z,87.66
2019-03-11T12:27:02.467Z,87.24
2019-03-11T12:28:02.440Z,87.04
2019-03-11T12:29:02.426Z,87.35
2019-03-11T12:30:02.450Z,86.93
2019-03-11T12:31:02.422Z,86.93
2019-03-11T12:32:02.414Z,86.93
2019-03-11T12:33:02.954Z,87.45
2019-03-11T12:34:02.375Z,87.24
2019-03-11T12:35:02.484Z,87.35
2019-03-11T12:36:02.365Z,87.76
2019-03-11T12:37:02.351Z,86.68
2019-03-11T12:38:02.340Z,87.35
2019-03-11T12:39:02.337Z,87.20
2019-03-11T12:40:02.308Z,86.89
2019-03-11T12:41:02.313Z,85.75
2019-03-11T12:42:02.293Z,86.37
2019-03-11T12:43:02.357Z,86.99
2019-03-11T12:44:02.301Z,86.47
2019-03-11T12:45:02.284Z,86.37
2019-03-11T12:46:02.291Z,86.79
2019-03-11T12:47:02.221Z,86.79
2019-03-11T12:48:02.290Z,86.47
2019-03-11T12:49:02.208Z,85.34
2019-03-11T12:50:02.279Z,84.92
2019-03-11T12:51:02.214Z,84.82
2019-03-11T12:52:02.168Z,84.72